sensor_id;sensor_type;location;lat;lon;timestamp;temperature;humidity
48604;DHT22;32708;51.212;6.788;2023-03-01T00:02:13;2.50;1.00
48604;DHT22;32708;51.212;6.788;2023-03-01T00:04:39;2.50;1.00
48604;DHT22;32708;51.212;6.788;2023-03-01T00:07:06;2.40;1.00
48604;DHT22;32708;51.212;6.788;2023-03-01T00:09:32;2.40;1.00
48604;DHT22;32708;51.212;6.788;2023-03-01T00:11:58;2.50;1.00
48604;DHT22;32708;51.212;6.788;2023-03-01T00:14:24;2.40;1.00
48604;DHT22;32708;51.212;6.788;2023-03-01T00:16:50;2.40;1.00
48604;DHT22;32708;51.212;6.788;2023-03-01T00:19:18;2.40;1.00
48604;DHT22;32708;51.212;6.788;2023-03-01T00:21:45;2.20;1.00
48604;DHT22;32708;51.212;6.788;2023-03-01T00:24:11;2.30;1.00
48604;DHT22;32708;51.212;6.788;2023-03-01T00:26:38;2.20;1.00
48604;DHT22;32708;51.212;6.788;2023-03-01T00:29:04;2.10;1.00
48604;DHT22;32708;51.212;6.788;2023-03-01T00:31:31;2.30;1.00
48604;DHT22;32708;51.212;6.788;2023-03-01T00:34:00;2.30;1.00
48604;DHT22;32708;51.212;6.788;2023-03-01T00:36:29;2.40;1.00
48604;DHT22;32708;51.212;6.788;2023-03-01T00:38:55;2.30;1.00
48604;DHT22;32708;51.212;6.788;2023-03-01T00:41:22;2.30;1.00
48604;DHT22;32708;51.212;6.788;2023-03-01T00:43:49;2.40;1.00
48604;DHT22;32708;51.212;6.788;2023-03-01T00:46:18;2.60;1.00
48604;DHT22;32708;51.212;6.788;2023-03-01T00:48:45;2.30;1.00
48604;DHT22;32708;51.212;6.788;2023-03-01T00:51:18;2.30;1.00
48604;DHT22;32708;51.212;6.788;2023-03-01T00:53:46;2.30;1.00
48604;DHT22;32708;51.212;6.788;2023-03-01T00:56:14;2.60;1.00
48604;DHT22;32708;51.212;6.788;2023-03-01T00:58:41;2.30;1.00
48604;DHT22;32708;51.212;6.788;2023-03-01T01:01:13;2.40;1.00
48604;DHT22;32708;51.212;6.788;2023-03-01T01:03:55;2.40;1.00
48604;DHT22;32708;51.212;6.788;2023-03-01T01:06:34;2.40;1.00
48604;DHT22;32708;51.212;6.788;2023-03-01T01:09:02;2.30;1.00
48604;DHT22;32708;51.212;6.788;2023-03-01T01:11:29;2.30;1.00
48604;DHT22;32708;51.212;6.788;2023-03-01T01:13:57;2.10;1.00
48604;DHT22;32708;51.212;6.788;2023-03-01T01:16:26;2.00;1.00
48604;DHT22;32708;51.212;6.788;2023-03-01T01:18:53;2.00;2.20
48604;DHT22;32708;51.212;6.788;2023-03-01T01:21:22;1.90;1.20
48604;DHT22;32708;51.212;6.788;2023-03-01T01:23:50;2.00;1.00
48604;DHT22;32708;51.212;6.788;2023-03-01T01:26:24;2.00;1.00
48604;DHT22;32708;51.212;6.788;2023-03-01T01:28:51;2.00;1.40
48604;DHT22;32708;51.212;6.788;2023-03-01T01:31:18;1.90;6.80
48604;DHT22;32708;51.212;6.788;2023-03-01T01:33:45;1.90;6.70
48604;DHT22;32708;51.212;6.788;2023-03-01T01:36:11;1.90;1.00
48604;DHT22;32708;51.212;6.788;2023-03-01T01:38:39;1.90;4.40
48604;DHT22;32708;51.212;6.788;2023-03-01T01:41:06;1.80;14.90
48604;DHT22;32708;51.212;6.788;2023-03-01T01:43:39;1.90;6.90
48604;DHT22;32708;51.212;6.788;2023-03-01T01:48:58;1.70;27.90
48604;DHT22;32708;51.212;6.788;2023-03-01T01:51:30;1.70;28.80
48604;DHT22;32708;51.212;6.788;2023-03-01T01:54:13;1.50;39.20
48604;DHT22;32708;51.212;6.788;2023-03-01T01:56:45;1.60;37.20
48604;DHT22;32708;51.212;6.788;2023-03-01T01:59:14;1.50;37.00
48604;DHT22;32708;51.212;6.788;2023-03-01T02:01:41;1.60;29.10
48604;DHT22;32708;51.212;6.788;2023-03-01T02:04:08;1.60;24.00
48604;DHT22;32708;51.212;6.788;2023-03-01T02:06:39;1.70;21.00
48604;DHT22;32708;51.212;6.788;2023-03-01T02:09:11;1.70;21.70
48604;DHT22;32708;51.212;6.788;2023-03-01T02:11:38;2.10;25.70
48604;DHT22;32708;51.212;6.788;2023-03-01T02:14:05;1.40;46.70
48604;DHT22;32708;51.212;6.788;2023-03-01T02:16:31;1.70;54.60
48604;DHT22;32708;51.212;6.788;2023-03-01T02:18:58;1.40;51.10
48604;DHT22;32708;51.212;6.788;2023-03-01T02:22:01;1.30;54.60
48604;DHT22;32708;51.212;6.788;2023-03-01T02:24:35;1.30;51.90
48604;DHT22;32708;51.212;6.788;2023-03-01T02:27:05;1.50;41.60
48604;DHT22;32708;51.212;6.788;2023-03-01T02:29:32;1.50;34.60
48604;DHT22;32708;51.212;6.788;2023-03-01T02:32:02;1.40;39.50
48604;DHT22;32708;51.212;6.788;2023-03-01T02:34:31;1.50;39.10
48604;DHT22;32708;51.212;6.788;2023-03-01T02:37:08;1.60;31.70
48604;DHT22;32708;51.212;6.788;2023-03-01T02:39:46;1.50;29.60
48604;DHT22;32708;51.212;6.788;2023-03-01T02:42:20;1.60;26.70
48604;DHT22;32708;51.212;6.788;2023-03-01T02:44:49;1.70;21.30
48604;DHT22;32708;51.212;6.788;2023-03-01T02:47:15;1.90;21.30
48604;DHT22;32708;51.212;6.788;2023-03-01T02:49:42;1.90;34.30
48604;DHT22;32708;51.212;6.788;2023-03-01T02:55:16;1.30;34.00
48604;DHT22;32708;51.212;6.788;2023-03-01T02:57:46;1.50;44.90
48604;DHT22;32708;51.212;6.788;2023-03-01T03:00:24;1.30;45.80
48604;DHT22;32708;51.212;6.788;2023-03-01T03:02:53;1.40;42.70
48604;DHT22;32708;51.212;6.788;2023-03-01T03:05:28;1.40;50.60
48604;DHT22;32708;51.212;6.788;2023-03-01T03:07:58;1.10;60.90
48604;DHT22;32708;51.212;6.788;2023-03-01T03:10:28;1.40;66.90
48604;DHT22;32708;51.212;6.788;2023-03-01T03:13:01;0.90;70.50
48604;DHT22;32708;51.212;6.788;2023-03-01T03:15:28;1.00;69.30
48604;DHT22;32708;51.212;6.788;2023-03-01T03:17:57;1.00;66.30
48604;DHT22;32708;51.212;6.788;2023-03-01T03:20:27;1.60;60.70
48604;DHT22;32708;51.212;6.788;2023-03-01T03:22:55;1.10;54.20
48604;DHT22;32708;51.212;6.788;2023-03-01T03:25:22;1.50;52.60
48604;DHT22;32708;51.212;6.788;2023-03-01T03:27:52;1.30;41.60
48604;DHT22;32708;51.212;6.788;2023-03-01T03:30:25;1.10;51.20
48604;DHT22;32708;51.212;6.788;2023-03-01T03:32:51;1.40;51.40
48604;DHT22;32708;51.212;6.788;2023-03-01T03:35:22;1.10;51.50
48604;DHT22;32708;51.212;6.788;2023-03-01T03:37:51;1.10;51.40
48604;DHT22;32708;51.212;6.788;2023-03-01T03:40:36;0.90;58.90
48604;DHT22;32708;51.212;6.788;2023-03-01T03:43:05;0.90;60.40
48604;DHT22;32708;51.212;6.788;2023-03-01T03:45:32;1.10;56.50
48604;DHT22;32708;51.212;6.788;2023-03-01T03:48:03;1.10;55.80
48604;DHT22;32708;51.212;6.788;2023-03-01T03:50:30;0.90;63.10
48604;DHT22;32708;51.212;6.788;2023-03-01T03:52:57;1.10;59.80
48604;DHT22;32708;51.212;6.788;2023-03-01T03:55:23;0.90;58.30
48604;DHT22;32708;51.212;6.788;2023-03-01T03:57:53;0.90;58.80
48604;DHT22;32708;51.212;6.788;2023-03-01T04:00:21;1.10;54.10
48604;DHT22;32708;51.212;6.788;2023-03-01T04:02:50;1.00;56.80
48604;DHT22;32708;51.212;6.788;2023-03-01T04:05:18;1.10;46.50
48604;DHT22;32708;51.212;6.788;2023-03-01T04:07:45;1.10;53.40
48604;DHT22;32708;51.212;6.788;2023-03-01T04:10:18;1.10;47.90
48604;DHT22;32708;51.212;6.788;2023-03-01T04:12:44;1.20;35.40
48604;DHT22;32708;51.212;6.788;2023-03-01T04:15:13;1.20;38.60
48604;DHT22;32708;51.212;6.788;2023-03-01T04:17:41;1.00;42.60
48604;DHT22;32708;51.212;6.788;2023-03-01T04:20:14;1.00;50.70
48604;DHT22;32708;51.212;6.788;2023-03-01T04:22:44;1.00;43.60
48604;DHT22;32708;51.212;6.788;2023-03-01T04:25:13;1.10;52.30
48604;DHT22;32708;51.212;6.788;2023-03-01T04:27:40;0.90;56.90
48604;DHT22;32708;51.212;6.788;2023-03-01T04:30:09;1.40;48.60
48604;DHT22;32708;51.212;6.788;2023-03-01T04:32:35;0.90;49.00
48604;DHT22;32708;51.212;6.788;2023-03-01T04:35:01;0.90;53.80
48604;DHT22;32708;51.212;6.788;2023-03-01T04:37:28;0.80;60.10
48604;DHT22;32708;51.212;6.788;2023-03-01T04:39:55;0.90;61.60
48604;DHT22;32708;51.212;6.788;2023-03-01T04:42:21;0.70;64.30
48604;DHT22;32708;51.212;6.788;2023-03-01T04:44:48;0.90;60.80
48604;DHT22;32708;51.212;6.788;2023-03-01T04:47:17;0.90;55.30
48604;DHT22;32708;51.212;6.788;2023-03-01T04:49:43;0.80;61.10
48604;DHT22;32708;51.212;6.788;2023-03-01T04:52:09;0.70;65.30
48604;DHT22;32708;51.212;6.788;2023-03-01T04:54:36;0.80;68.40
48604;DHT22;32708;51.212;6.788;2023-03-01T04:57:03;0.80;63.70
48604;DHT22;32708;51.212;6.788;2023-03-01T04:59:29;0.90;57.60
48604;DHT22;32708;51.212;6.788;2023-03-01T05:01:56;1.00;46.60
48604;DHT22;32708;51.212;6.788;2023-03-01T05:04:23;1.00;46.80
48604;DHT22;32708;51.212;6.788;2023-03-01T05:06:50;0.90;51.90
48604;DHT22;32708;51.212;6.788;2023-03-01T05:09:16;1.00;46.30
48604;DHT22;32708;51.212;6.788;2023-03-01T05:11:42;1.40;43.50
48604;DHT22;32708;51.212;6.788;2023-03-01T05:14:09;0.90;47.90
48604;DHT22;32708;51.212;6.788;2023-03-01T05:16:35;0.90;52.30
48604;DHT22;32708;51.212;6.788;2023-03-01T05:19:03;1.10;43.10
48604;DHT22;32708;51.212;6.788;2023-03-01T05:21:42;1.00;39.50
48604;DHT22;32708;51.212;6.788;2023-03-01T05:24:28;1.10;40.50
48604;DHT22;32708;51.212;6.788;2023-03-01T05:26:55;1.00;36.50
48604;DHT22;32708;51.212;6.788;2023-03-01T05:29:23;1.00;36.80
48604;DHT22;32708;51.212;6.788;2023-03-01T05:31:57;1.10;48.10
48604;DHT22;32708;51.212;6.788;2023-03-01T05:34:30;0.90;50.20
48604;DHT22;32708;51.212;6.788;2023-03-01T05:36:57;0.90;47.40
48604;DHT22;32708;51.212;6.788;2023-03-01T05:39:26;0.60;59.30
48604;DHT22;32708;51.212;6.788;2023-03-01T05:41:58;0.60;69.70
48604;DHT22;32708;51.212;6.788;2023-03-01T05:44:25;0.60;64.60
48604;DHT22;32708;51.212;6.788;2023-03-01T05:46:52;0.60;66.30
48604;DHT22;32708;51.212;6.788;2023-03-01T05:49:19;0.80;62.30
48604;DHT22;32708;51.212;6.788;2023-03-01T05:51:50;0.80;56.30
48604;DHT22;32708;51.212;6.788;2023-03-01T05:54:18;0.90;48.60
48604;DHT22;32708;51.212;6.788;2023-03-01T05:56:45;0.70;55.00
48604;DHT22;32708;51.212;6.788;2023-03-01T05:59:11;0.70;55.40
48604;DHT22;32708;51.212;6.788;2023-03-01T06:01:37;0.70;54.20
48604;DHT22;32708;51.212;6.788;2023-03-01T06:04:04;0.70;59.10
48604;DHT22;32708;51.212;6.788;2023-03-01T06:06:34;0.70;53.50
48604;DHT22;32708;51.212;6.788;2023-03-01T06:09:04;0.80;57.40
48604;DHT22;32708;51.212;6.788;2023-03-01T06:11:30;0.80;55.90
48604;DHT22;32708;51.212;6.788;2023-03-01T06:13:56;0.80;57.10
48604;DHT22;32708;51.212;6.788;2023-03-01T06:16:22;0.80;49.10
48604;DHT22;32708;51.212;6.788;2023-03-01T06:18:48;0.60;58.80
48604;DHT22;32708;51.212;6.788;2023-03-01T06:21:14;0.60;61.90
48604;DHT22;32708;51.212;6.788;2023-03-01T06:23:40;0.80;58.80
48604;DHT22;32708;51.212;6.788;2023-03-01T06:26:09;0.70;52.50
48604;DHT22;32708;51.212;6.788;2023-03-01T06:28:35;0.70;56.60
48604;DHT22;32708;51.212;6.788;2023-03-01T06:31:02;1.10;47.70
48604;DHT22;32708;51.212;6.788;2023-03-01T06:33:28;0.90;46.60
48604;DHT22;32708;51.212;6.788;2023-03-01T06:35:55;1.00;38.20
48604;DHT22;32708;51.212;6.788;2023-03-01T06:38:23;1.00;30.60
48604;DHT22;32708;51.212;6.788;2023-03-01T06:40:55;1.10;27.70
48604;DHT22;32708;51.212;6.788;2023-03-01T06:43:23;1.10;20.80
48604;DHT22;32708;51.212;6.788;2023-03-01T06:45:50;1.60;18.60
48604;DHT22;32708;51.212;6.788;2023-03-01T06:48:16;1.30;13.90
48604;DHT22;32708;51.212;6.788;2023-03-01T06:50:42;1.40;1.00
48604;DHT22;32708;51.212;6.788;2023-03-01T06:53:08;1.80;1.00
48604;DHT22;32708;51.212;6.788;2023-03-01T06:55:35;1.80;1.00
48604;DHT22;32708;51.212;6.788;2023-03-01T06:58:02;1.60;1.00
48604;DHT22;32708;51.212;6.788;2023-03-01T07:00:30;1.50;1.00
48604;DHT22;32708;51.212;6.788;2023-03-01T07:02:59;1.50;1.00
48604;DHT22;32708;51.212;6.788;2023-03-01T07:05:25;1.80;1.00
48604;DHT22;32708;51.212;6.788;2023-03-01T07:07:51;2.20;1.00
48604;DHT22;32708;51.212;6.788;2023-03-01T07:10:18;2.60;99.90
48604;DHT22;32708;51.212;6.788;2023-03-01T07:12:44;2.90;99.90
48604;DHT22;32708;51.212;6.788;2023-03-01T07:15:12;3.40;87.10
48604;DHT22;32708;51.212;6.788;2023-03-01T07:17:38;3.30;99.90
48604;DHT22;32708;51.212;6.788;2023-03-01T07:20:04;3.10;95.30
48604;DHT22;32708;51.212;6.788;2023-03-01T07:22:30;3.50;99.90
48604;DHT22;32708;51.212;6.788;2023-03-01T07:24:57;3.90;1.00
48604;DHT22;32708;51.212;6.788;2023-03-01T07:27:23;3.70;99.90
48604;DHT22;32708;51.212;6.788;2023-03-01T07:29:49;3.80;1.00
48604;DHT22;32708;51.212;6.788;2023-03-01T07:32:15;4.10;1.00
48604;DHT22;32708;51.212;6.788;2023-03-01T07:34:41;3.80;99.90
48604;DHT22;32708;51.212;6.788;2023-03-01T07:37:07;4.60;99.90
48604;DHT22;32708;51.212;6.788;2023-03-01T07:39:33;5.10;99.90
48604;DHT22;32708;51.212;6.788;2023-03-01T07:41:59;4.80;99.90
48604;DHT22;32708;51.212;6.788;2023-03-01T07:44:25;4.90;99.90
48604;DHT22;32708;51.212;6.788;2023-03-01T07:46:51;5.30;99.90
48604;DHT22;32708;51.212;6.788;2023-03-01T07:49:22;5.10;1.00
48604;DHT22;32708;51.212;6.788;2023-03-01T07:51:48;5.00;99.90
48604;DHT22;32708;51.212;6.788;2023-03-01T07:54:14;4.90;99.90
48604;DHT22;32708;51.212;6.788;2023-03-01T07:56:40;4.50;99.90
48604;DHT22;32708;51.212;6.788;2023-03-01T07:59:06;5.00;99.90
48604;DHT22;32708;51.212;6.788;2023-03-01T08:01:35;5.00;99.90
48604;DHT22;32708;51.212;6.788;2023-03-01T08:04:01;5.30;99.90
48604;DHT22;32708;51.212;6.788;2023-03-01T08:06:27;5.40;79.80
48604;DHT22;32708;51.212;6.788;2023-03-01T08:08:53;6.00;1.00
48604;DHT22;32708;51.212;6.788;2023-03-01T08:11:21;5.50;99.90
48604;DHT22;32708;51.212;6.788;2023-03-01T08:13:48;5.90;99.90
48604;DHT22;32708;51.212;6.788;2023-03-01T08:16:15;5.70;99.90
48604;DHT22;32708;51.212;6.788;2023-03-01T08:18:42;5.30;99.90
48604;DHT22;32708;51.212;6.788;2023-03-01T08:21:11;6.00;99.90
48604;DHT22;32708;51.212;6.788;2023-03-01T08:23:39;5.30;99.90
48604;DHT22;32708;51.212;6.788;2023-03-01T08:26:12;5.10;99.90
48604;DHT22;32708;51.212;6.788;2023-03-01T08:28:39;4.60;99.90
48604;DHT22;32708;51.212;6.788;2023-03-01T08:33:40;3.80;1.00
48604;DHT22;32708;51.212;6.788;2023-03-01T08:36:06;3.80;98.20
48604;DHT22;32708;51.212;6.788;2023-03-01T08:38:33;3.70;99.90
48604;DHT22;32708;51.212;6.788;2023-03-01T08:41:03;3.70;3.80
48604;DHT22;32708;51.212;6.788;2023-03-01T08:43:30;3.70;1.00
48604;DHT22;32708;51.212;6.788;2023-03-01T08:45:56;3.80;99.90
48604;DHT22;32708;51.212;6.788;2023-03-01T08:48:22;3.70;99.90
48604;DHT22;32708;51.212;6.788;2023-03-01T08:50:48;3.70;99.90
48604;DHT22;32708;51.212;6.788;2023-03-01T08:53:14;3.90;99.90
48604;DHT22;32708;51.212;6.788;2023-03-01T08:55:40;4.00;1.00
48604;DHT22;32708;51.212;6.788;2023-03-01T08:58:06;3.80;1.00
48604;DHT22;32708;51.212;6.788;2023-03-01T09:00:32;3.80;99.90
48604;DHT22;32708;51.212;6.788;2023-03-01T09:03:00;3.90;99.90
48604;DHT22;32708;51.212;6.788;2023-03-01T09:05:26;3.90;1.00
48604;DHT22;32708;51.212;6.788;2023-03-01T09:07:52;3.80;1.00
48604;DHT22;32708;51.212;6.788;2023-03-01T09:10:21;4.00;99.90
48604;DHT22;32708;51.212;6.788;2023-03-01T09:12:47;4.10;99.90
48604;DHT22;32708;51.212;6.788;2023-03-01T09:15:13;4.10;1.00
48604;DHT22;32708;51.212;6.788;2023-03-01T09:17:39;4.30;99.90
48604;DHT22;32708;51.212;6.788;2023-03-01T09:20:06;4.50;1.00
48604;DHT22;32708;51.212;6.788;2023-03-01T09:22:33;4.50;99.90
48604;DHT22;32708;51.212;6.788;2023-03-01T09:25:00;4.50;99.90
48604;DHT22;32708;51.212;6.788;2023-03-01T09:27:26;4.50;11.40
48604;DHT22;32708;51.212;6.788;2023-03-01T09:29:52;4.40;1.00
48604;DHT22;32708;51.212;6.788;2023-03-01T09:32:21;4.30;99.90
48604;DHT22;32708;51.212;6.788;2023-03-01T09:34:47;4.50;93.30
48604;DHT22;32708;51.212;6.788;2023-03-01T09:37:32;4.50;90.50
48604;DHT22;32708;51.212;6.788;2023-03-01T09:39:59;4.70;99.90
48604;DHT22;32708;51.212;6.788;2023-03-01T09:42:26;4.80;99.90
48604;DHT22;32708;51.212;6.788;2023-03-01T09:45:05;4.90;38.20
48604;DHT22;32708;51.212;6.788;2023-03-01T09:47:35;4.70;1.00
48604;DHT22;32708;51.212;6.788;2023-03-01T09:50:16;4.70;1.00
48604;DHT22;32708;51.212;6.788;2023-03-01T09:55:59;4.80;1.00
48604;DHT22;32708;51.212;6.788;2023-03-01T09:58:37;4.80;1.00
48604;DHT22;32708;51.212;6.788;2023-03-01T10:01:32;5.00;1.00
48604;DHT22;32708;51.212;6.788;2023-03-01T10:09:42;5.50;99.90
48604;DHT22;32708;51.212;6.788;2023-03-01T10:12:18;5.30;99.90
48604;DHT22;32708;51.212;6.788;2023-03-01T10:17:55;5.20;99.90
48604;DHT22;32708;51.212;6.788;2023-03-01T10:20:37;5.10;99.90
48604;DHT22;32708;51.212;6.788;2023-03-01T10:23:09;5.20;99.90
48604;DHT22;32708;51.212;6.788;2023-03-01T10:31:19;5.80;99.90
48604;DHT22;32708;51.212;6.788;2023-03-01T10:33:46;5.70;99.90
48604;DHT22;32708;51.212;6.788;2023-03-01T10:36:13;5.80;91.30
48604;DHT22;32708;51.212;6.788;2023-03-01T10:38:54;5.60;99.90
48604;DHT22;32708;51.212;6.788;2023-03-01T10:41:22;5.60;99.90
48604;DHT22;32708;51.212;6.788;2023-03-01T10:43:55;5.70;99.90
48604;DHT22;32708;51.212;6.788;2023-03-01T10:46:35;5.80;42.90
48604;DHT22;32708;51.212;6.788;2023-03-01T10:49:14;5.80;1.00
48604;DHT22;32708;51.212;6.788;2023-03-01T10:51:46;5.80;14.90
48604;DHT22;32708;51.212;6.788;2023-03-01T10:56:56;6.10;1.00
48604;DHT22;32708;51.212;6.788;2023-03-01T10:59:26;6.10;8.30
48604;DHT22;32708;51.212;6.788;2023-03-01T11:02:15;6.40;1.00
48604;DHT22;32708;51.212;6.788;2023-03-01T11:05:07;6.10;1.00
48604;DHT22;32708;51.212;6.788;2023-03-01T11:07:55;6.40;1.00
48604;DHT22;32708;51.212;6.788;2023-03-01T11:10:27;6.40;1.00
48604;DHT22;32708;51.212;6.788;2023-03-01T11:13:07;6.40;1.00
48604;DHT22;32708;51.212;6.788;2023-03-01T11:15:35;6.40;99.90
48604;DHT22;32708;51.212;6.788;2023-03-01T11:18:02;6.60;99.90
48604;DHT22;32708;51.212;6.788;2023-03-01T11:20:35;6.80;99.90
48604;DHT22;32708;51.212;6.788;2023-03-01T11:23:10;6.80;99.90
48604;DHT22;32708;51.212;6.788;2023-03-01T11:25:42;6.70;99.90
48604;DHT22;32708;51.212;6.788;2023-03-01T11:28:15;6.70;99.90
48604;DHT22;32708;51.212;6.788;2023-03-01T11:30:55;6.40;99.90
48604;DHT22;32708;51.212;6.788;2023-03-01T11:36:16;6.50;99.90
48604;DHT22;32708;51.212;6.788;2023-03-01T11:38:47;6.70;99.90
48604;DHT22;32708;51.212;6.788;2023-03-01T11:41:31;6.70;99.90
48604;DHT22;32708;51.212;6.788;2023-03-01T11:44:26;6.90;99.90
48604;DHT22;32708;51.212;6.788;2023-03-01T11:47:13;6.60;99.90
48604;DHT22;32708;51.212;6.788;2023-03-01T11:53:09;6.60;99.90
48604;DHT22;32708;51.212;6.788;2023-03-01T11:58:47;6.80;99.90
48604;DHT22;32708;51.212;6.788;2023-03-01T12:01:57;6.60;99.90
48604;DHT22;32708;51.212;6.788;2023-03-01T12:04:50;6.80;99.90
48604;DHT22;32708;51.212;6.788;2023-03-01T12:10:11;6.70;99.90
48604;DHT22;32708;51.212;6.788;2023-03-01T12:16:17;6.70;99.90
48604;DHT22;32708;51.212;6.788;2023-03-01T12:29:51;6.90;99.90
48604;DHT22;32708;51.212;6.788;2023-03-01T12:32:32;6.70;99.90
48604;DHT22;32708;51.212;6.788;2023-03-01T12:35:45;7.00;99.90
48604;DHT22;32708;51.212;6.788;2023-03-01T12:49:48;7.10;99.90
48604;DHT22;32708;51.212;6.788;2023-03-01T12:52:23;7.30;99.90
48604;DHT22;32708;51.212;6.788;2023-03-01T12:54:57;7.40;99.90
48604;DHT22;32708;51.212;6.788;2023-03-01T12:57:39;7.40;99.90
48604;DHT22;32708;51.212;6.788;2023-03-01T13:00:59;7.50;99.90
48604;DHT22;32708;51.212;6.788;2023-03-01T13:11:42;7.50;99.90
48604;DHT22;32708;51.212;6.788;2023-03-01T13:17:00;7.40;99.90
48604;DHT22;32708;51.212;6.788;2023-03-01T13:19:28;7.30;99.90
48604;DHT22;32708;51.212;6.788;2023-03-01T13:21:55;7.50;99.90
48604;DHT22;32708;51.212;6.788;2023-03-01T13:24:29;7.50;99.90
48604;DHT22;32708;51.212;6.788;2023-03-01T13:32:28;7.00;99.90
48604;DHT22;32708;51.212;6.788;2023-03-01T13:37:46;7.60;99.90
48604;DHT22;32708;51.212;6.788;2023-03-01T13:42:47;7.50;99.90
48604;DHT22;32708;51.212;6.788;2023-03-01T13:47:58;7.50;99.90
48604;DHT22;32708;51.212;6.788;2023-03-01T13:50:33;7.50;99.90
48604;DHT22;32708;51.212;6.788;2023-03-01T13:53:04;7.40;99.90
48604;DHT22;32708;51.212;6.788;2023-03-01T13:55:42;7.30;99.90
48604;DHT22;32708;51.212;6.788;2023-03-01T13:58:16;7.40;99.90
48604;DHT22;32708;51.212;6.788;2023-03-01T14:00:44;7.30;99.90
48604;DHT22;32708;51.212;6.788;2023-03-01T14:03:14;7.50;99.90
48604;DHT22;32708;51.212;6.788;2023-03-01T14:08:26;7.50;99.90
48604;DHT22;32708;51.212;6.788;2023-03-01T14:19:30;7.70;99.90
48604;DHT22;32708;51.212;6.788;2023-03-01T14:24:41;7.50;99.90
48604;DHT22;32708;51.212;6.788;2023-03-01T14:27:12;7.50;99.90
48604;DHT22;32708;51.212;6.788;2023-03-01T14:29:53;7.30;99.90
48604;DHT22;32708;51.212;6.788;2023-03-01T14:32:24;7.40;99.90
48604;DHT22;32708;51.212;6.788;2023-03-01T14:34:51;7.30;99.90
48604;DHT22;32708;51.212;6.788;2023-03-01T14:37:27;7.30;99.90
48604;DHT22;32708;51.212;6.788;2023-03-01T14:39:55;7.30;99.90
48604;DHT22;32708;51.212;6.788;2023-03-01T14:42:24;7.30;99.90
48604;DHT22;32708;51.212;6.788;2023-03-01T14:44:54;7.20;99.90
48604;DHT22;32708;51.212;6.788;2023-03-01T14:47:33;7.50;99.90
48604;DHT22;32708;51.212;6.788;2023-03-01T14:50:09;7.40;99.90
48604;DHT22;32708;51.212;6.788;2023-03-01T14:52:42;7.50;99.90
48604;DHT22;32708;51.212;6.788;2023-03-01T14:55:18;7.60;99.90
48604;DHT22;32708;51.212;6.788;2023-03-01T14:57:47;7.40;99.90
48604;DHT22;32708;51.212;6.788;2023-03-01T15:00:20;7.30;99.90
48604;DHT22;32708;51.212;6.788;2023-03-01T15:02:52;7.20;99.90
48604;DHT22;32708;51.212;6.788;2023-03-01T15:05:29;7.10;99.90
48604;DHT22;32708;51.212;6.788;2023-03-01T15:07:58;7.10;99.90
48604;DHT22;32708;51.212;6.788;2023-03-01T15:10:31;7.20;99.90
48604;DHT22;32708;51.212;6.788;2023-03-01T15:13:22;7.30;99.90
48604;DHT22;32708;51.212;6.788;2023-03-01T15:15:51;7.40;99.90
48604;DHT22;32708;51.212;6.788;2023-03-01T15:18:27;7.30;99.90
48604;DHT22;32708;51.212;6.788;2023-03-01T15:20:54;7.30;99.90
48604;DHT22;32708;51.212;6.788;2023-03-01T15:23:28;7.20;99.90
48604;DHT22;32708;51.212;6.788;2023-03-01T15:25:55;7.10;99.90
48604;DHT22;32708;51.212;6.788;2023-03-01T15:28:28;7.30;99.90
48604;DHT22;32708;51.212;6.788;2023-03-01T15:33:46;7.60;99.90
48604;DHT22;32708;51.212;6.788;2023-03-01T15:36:37;7.50;99.90
48604;DHT22;32708;51.212;6.788;2023-03-01T15:39:22;7.40;99.90
48604;DHT22;32708;51.212;6.788;2023-03-01T15:41:53;7.40;99.90
48604;DHT22;32708;51.212;6.788;2023-03-01T15:44:30;7.20;99.90
48604;DHT22;32708;51.212;6.788;2023-03-01T15:46:57;7.30;99.90
48604;DHT22;32708;51.212;6.788;2023-03-01T15:52:03;7.30;99.90
48604;DHT22;32708;51.212;6.788;2023-03-01T15:54:31;7.20;99.90
48604;DHT22;32708;51.212;6.788;2023-03-01T15:56:59;7.30;99.90
48604;DHT22;32708;51.212;6.788;2023-03-01T15:59:25;7.30;99.90
48604;DHT22;32708;51.212;6.788;2023-03-01T16:01:51;7.40;99.90
48604;DHT22;32708;51.212;6.788;2023-03-01T16:04:18;7.30;99.90
48604;DHT22;32708;51.212;6.788;2023-03-01T16:06:54;7.20;99.90
48604;DHT22;32708;51.212;6.788;2023-03-01T16:09:23;7.30;99.90
48604;DHT22;32708;51.212;6.788;2023-03-01T16:11:51;7.40;99.90
48604;DHT22;32708;51.212;6.788;2023-03-01T16:14:18;7.40;99.90
48604;DHT22;32708;51.212;6.788;2023-03-01T16:16:45;7.40;99.90
48604;DHT22;32708;51.212;6.788;2023-03-01T16:19:11;7.40;99.90
48604;DHT22;32708;51.212;6.788;2023-03-01T16:21:38;7.20;99.90
48604;DHT22;32708;51.212;6.788;2023-03-01T16:24:04;7.30;99.90
48604;DHT22;32708;51.212;6.788;2023-03-01T16:26:30;7.20;99.90
48604;DHT22;32708;51.212;6.788;2023-03-01T16:28:57;7.10;99.90
48604;DHT22;32708;51.212;6.788;2023-03-01T16:31:23;7.00;99.90
48604;DHT22;32708;51.212;6.788;2023-03-01T16:33:54;7.00;99.90
48604;DHT22;32708;51.212;6.788;2023-03-01T16:36:22;7.00;99.90
48604;DHT22;32708;51.212;6.788;2023-03-01T16:38:52;7.00;99.90
48604;DHT22;32708;51.212;6.788;2023-03-01T16:41:25;7.00;99.90
48604;DHT22;32708;51.212;6.788;2023-03-01T16:43:55;6.90;99.90
48604;DHT22;32708;51.212;6.788;2023-03-01T16:46:26;7.00;99.30
48604;DHT22;32708;51.212;6.788;2023-03-01T16:48:53;7.00;99.50
48604;DHT22;32708;51.212;6.788;2023-03-01T16:51:21;6.80;99.90
48604;DHT22;32708;51.212;6.788;2023-03-01T16:53:48;6.90;99.90
48604;DHT22;32708;51.212;6.788;2023-03-01T16:56:15;6.80;99.90
48604;DHT22;32708;51.212;6.788;2023-03-01T16:58:41;6.80;99.90
48604;DHT22;32708;51.212;6.788;2023-03-01T17:01:16;6.70;99.90
48604;DHT22;32708;51.212;6.788;2023-03-01T17:03:46;6.60;99.90
48604;DHT22;32708;51.212;6.788;2023-03-01T17:06:17;6.60;99.90
48604;DHT22;32708;51.212;6.788;2023-03-01T17:08:43;6.60;99.90
48604;DHT22;32708;51.212;6.788;2023-03-01T17:11:16;6.50;99.90
48604;DHT22;32708;51.212;6.788;2023-03-01T17:13:42;6.50;99.90
48604;DHT22;32708;51.212;6.788;2023-03-01T17:16:11;6.60;99.90
48604;DHT22;32708;51.212;6.788;2023-03-01T17:18:38;6.50;99.90
48604;DHT22;32708;51.212;6.788;2023-03-01T17:21:05;6.70;99.90
48604;DHT22;32708;51.212;6.788;2023-03-01T17:23:33;6.50;99.90
48604;DHT22;32708;51.212;6.788;2023-03-01T17:26:00;6.40;99.90
48604;DHT22;32708;51.212;6.788;2023-03-01T17:28:28;6.40;99.90
48604;DHT22;32708;51.212;6.788;2023-03-01T17:30:55;6.50;99.90
48604;DHT22;32708;51.212;6.788;2023-03-01T17:33:21;6.50;99.90
48604;DHT22;32708;51.212;6.788;2023-03-01T17:35:49;6.50;99.90
48604;DHT22;32708;51.212;6.788;2023-03-01T17:38:18;6.30;99.90
48604;DHT22;32708;51.212;6.788;2023-03-01T17:40:44;6.30;99.90
48604;DHT22;32708;51.212;6.788;2023-03-01T17:43:15;6.30;99.90
48604;DHT22;32708;51.212;6.788;2023-03-01T17:45:43;6.20;99.90
48604;DHT22;32708;51.212;6.788;2023-03-01T17:48:15;6.20;99.90
48604;DHT22;32708;51.212;6.788;2023-03-01T17:50:42;6.30;99.90
48604;DHT22;32708;51.212;6.788;2023-03-01T17:53:08;6.10;99.90
48604;DHT22;32708;51.212;6.788;2023-03-01T17:55:36;6.00;99.90
48604;DHT22;32708;51.212;6.788;2023-03-01T17:58:03;6.10;99.90
48604;DHT22;32708;51.212;6.788;2023-03-01T18:00:30;6.00;99.90